Terminal Aerodrome Forecast
Issued by NWS

Home | Current Version | Previous Version | Text Only | Print | Product List | Glossary On
Versions: 1 2 3 4 5 6 7 8 9 10 11 12 13 14 15 16 17 18 19 20 21 22 23 24 25 26 27 28 29 30 31 32 33
000
FTUS45 KGJT 291743
TAFEGE
TAF
KEGE 291743Z 2918/3018 28006KT P6SM VCSH OVC070
     FM300000 02009KT P6SM VCSH OVC070
     FM300600 VRB03KT P6SM VCSH BKN080
     FM301200 VRB03KT P6SM SCT100=

USA.gov is the U.S. government's official web portal to all federal, state and local government web resources and services.